Time;durP1;ratioP1;P1;durP2;ratioP2;P2;SDS_P1;SDS_P2;PMS_P1;PMS_P2;Temp;Humidity;BMP_temperature;BMP_pressure;BME280_temperature;BME280_humidity;BME280_pressure;Samples;Min_cycle;Max_cycle;Signal;HPM_P1;HPM_P2
2021/08/15 00:00:13;;;;;;;13.70;6.93;;;16.80;98.30;;;;;;5150829;23;20412;-81
2021/08/15 00:02:15;;;;;;;9.83;6.70;;;16.70;98.30;;;;;;5141416;23;20409;-81
2021/08/15 00:04:19;;;;;;;14.87;6.50;;;16.70;98.30;;;;;;5141277;23;20425;-81
2021/08/15 00:06:23;;;;;;;13.97;7.60;;;16.80;98.30;;;;;;5143097;23;20794;-81
2021/08/15 00:08:26;;;;;;;12.30;7.00;;;16.70;98.30;;;;;;5151216;23;21078;-81
2021/08/15 00:10:29;;;;;;;20.43;8.10;;;16.70;98.30;;;;;;5143668;23;20435;-80
2021/08/15 00:12:32;;;;;;;11.40;7.47;;;16.70;98.30;;;;;;5151094;23;20428;-80
2021/08/15 00:14:35;;;;;;;14.07;7.47;;;16.60;98.30;;;;;;5141964;23;20433;-81
2021/08/15 00:16:38;;;;;;;17.80;8.50;;;16.70;98.30;;;;;;5141543;23;20429;-81
2021/08/15 00:18:41;;;;;;;12.63;6.90;;;16.70;98.30;;;;;;5142441;23;20527;-81
2021/08/15 00:20:46;;;;;;;14.30;7.60;;;16.60;98.30;;;;;;5150456;23;20417;-81
2021/08/15 00:22:50;;;;;;;15.13;7.50;;;16.50;98.30;;;;;;5142046;23;20497;-82
2021/08/15 00:24:54;;;;;;;15.13;8.07;;;16.50;98.30;;;;;;5141965;23;20431;-81
2021/08/15 00:26:57;;;;;;;19.40;7.83;;;16.50;98.30;;;;;;5142886;23;20436;-81
2021/08/15 00:29:01;;;;;;;12.17;7.67;;;16.50;98.30;;;;;;5144331;23;20456;-81
2021/08/15 00:31:04;;;;;;;14.13;8.13;;;16.50;98.30;;;;;;5143880;23;20508;-81
2021/08/15 00:33:07;;;;;;;17.83;8.80;;;16.50;98.30;;;;;;5143761;23;20435;-80
2021/08/15 00:35:11;;;;;;;10.70;8.47;;;16.50;98.30;;;;;;5143819;23;20432;-81
2021/08/15 00:37:13;;;;;;;17.07;7.63;;;16.50;98.30;;;;;;5144707;23;20519;-80
2021/08/15 00:39:18;;;;;;;16.50;7.67;;;16.60;98.30;;;;;;5144871;23;20476;-81
2021/08/15 00:41:21;;;;;;;17.10;7.60;;;16.60;98.30;;;;;;5152347;23;20428;-81
2021/08/15 00:43:26;;;;;;;21.47;7.50;;;16.60;98.30;;;;;;5149933;23;20424;-80
2021/08/15 00:45:29;;;;;;;16.73;8.40;;;16.60;98.30;;;;;;5142980;23;20549;-81
2021/08/15 00:47:32;;;;;;;18.07;8.40;;;16.50;98.30;;;;;;5142832;23;20544;-80
2021/08/15 00:49:35;;;;;;;13.80;7.43;;;16.60;98.30;;;;;;5151233;23;20425;-81
2021/08/15 00:51:38;;;;;;;14.60;7.70;;;16.60;98.30;;;;;;5144889;23;21192;-80
2021/08/15 00:53:41;;;;;;;22.03;9.67;;;16.70;98.30;;;;;;5143558;23;20433;-81
2021/08/15 00:55:45;;;;;;;14.13;7.87;;;16.60;98.30;;;;;;5144520;23;20428;-81
2021/08/15 00:57:48;;;;;;;14.40;7.90;;;16.70;98.30;;;;;;5144026;23;20456;-81
2021/08/15 00:59:52;;;;;;;14.17;8.40;;;16.60;98.30;;;;;;5151994;23;20424;-81
2021/08/15 01:01:55;;;;;;;16.87;7.80;;;16.60;98.30;;;;;;5143109;23;20429;-81
2021/08/15 01:04:02;;;;;;;15.43;7.70;;;16.60;98.30;;;;;;5142918;23;20429;-81
2021/08/15 01:06:07;;;;;;;18.53;7.73;;;16.60;98.30;;;;;;5151637;23;20401;-81
2021/08/15 01:08:10;;;;;;;12.70;7.37;;;16.60;98.30;;;;;;5146555;23;20473;-80
2021/08/15 01:10:14;;;;;;;10.57;7.00;;;16.50;98.30;;;;;;5154667;23;20416;-82
2021/08/15 01:12:18;;;;;;;15.80;8.27;;;16.50;98.30;;;;;;5154378;23;20794;-81
2021/08/15 01:14:22;;;;;;;17.17;8.00;;;16.60;98.30;;;;;;5145880;23;20456;-81
2021/08/15 01:16:25;;;;;;;12.57;6.90;;;16.60;98.30;;;;;;5154326;23;20448;-80
2021/08/15 01:18:30;;;;;;;17.77;7.67;;;16.60;98.30;;;;;;5154359;23;20452;-80
2021/08/15 01:20:33;;;;;;;11.30;7.23;;;16.60;98.30;;;;;;5146538;23;20832;-81
2021/08/15 01:22:37;;;;;;;12.33;7.30;;;16.60;98.30;;;;;;5146602;23;21296;-82
2021/08/15 01:24:40;;;;;;;13.80;7.50;;;16.70;98.30;;;;;;5154464;23;20429;-81
2021/08/15 01:27:00;;;;;;;11.10;6.47;;;16.70;98.30;;;;;;5146982;23;20500;-81
2021/08/15 01:29:05;;;;;;;14.90;8.67;;;16.70;98.30;;;;;;5147304;23;20451;-80
2021/08/15 01:31:10;;;;;;;14.67;7.90;;;16.70;98.30;;;;;;5146586;23;21252;-80
2021/08/15 01:33:23;;;;;;;13.20;7.10;;;16.70;98.30;;;;;;5146914;23;20429;-81
2021/08/15 01:35:26;;;;;;;15.27;7.43;;;16.80;98.30;;;;;;5147424;23;20417;-81
2021/08/15 01:37:29;;;;;;;17.90;7.50;;;16.70;98.30;;;;;;5156535;23;20496;-80
2021/08/15 01:39:32;;;;;;;11.73;7.17;;;16.80;98.30;;;;;;5147312;23;20492;-81
2021/08/15 01:41:34;;;;;;;12.60;7.00;;;16.80;98.30;;;;;;5147842;23;20451;-80
2021/08/15 01:43:48;;;;;;;11.90;7.10;;;16.80;98.30;;;;;;5148189;23;20435;-81
2021/08/15 01:45:53;;;;;;;13.43;7.33;;;16.80;98.30;;;;;;5157042;23;20962;-80
2021/08/15 01:47:56;;;;;;;13.93;6.97;;;16.80;98.30;;;;;;5150008;23;20505;-79
2021/08/15 01:49:58;;;;;;;13.20;7.20;;;16.80;98.30;;;;;;5150157;23;20895;-81
2021/08/15 01:52:01;;;;;;;21.77;7.30;;;16.80;98.30;;;;;;5153564;23;20423;-81
2021/08/15 01:54:04;;;;;;;11.93;6.80;;;16.90;98.30;;;;;;5145661;23;20432;-81
2021/08/15 01:56:08;;;;;;;7.83;6.37;;;16.90;98.30;;;;;;5153570;23;20432;-81
2021/08/15 01:58:11;;;;;;;10.10;6.30;;;16.90;98.30;;;;;;5144739;23;20476;-81
2021/08/15 02:00:15;;;;;;;14.80;7.23;;;16.90;98.30;;;;;;5144825;23;20429;-80
2021/08/15 02:02:19;;;;;;;14.63;7.23;;;17.00;98.30;;;;;;5145873;23;20435;-81
2021/08/15 02:04:23;;;;;;;8.43;6.20;;;17.00;98.30;;;;;;5144805;23;20428;-81
2021/08/15 02:06:28;;;;;;;8.13;6.20;;;17.00;98.30;;;;;;5145026;23;20444;-81
2021/08/15 02:08:31;;;;;;;17.47;7.40;;;17.10;98.30;;;;;;5145928;23;20449;-81
2021/08/15 02:10:34;;;;;;;13.77;7.03;;;17.10;98.30;;;;;;5145580;23;20512;-81
2021/08/15 02:12:37;;;;;;;17.33;7.00;;;17.10;98.30;;;;;;5145174;23;20524;-81
2021/08/15 02:14:40;;;;;;;16.47;6.90;;;17.20;98.30;;;;;;5145410;23;21083;-81
2021/08/15 02:16:43;;;;;;;12.30;7.20;;;17.20;98.30;;;;;;5153869;23;21170;-81
2021/08/15 02:18:48;;;;;;;12.13;6.10;;;17.10;98.30;;;;;;5145470;23;20444;-81
2021/08/15 02:20:50;;;;;;;12.63;6.30;;;17.10;98.30;;;;;;5145618;23;20433;-80
2021/08/15 02:22:54;;;;;;;13.20;6.13;;;17.10;98.30;;;;;;5154083;23;20460;-81
2021/08/15 02:24:57;;;;;;;10.30;6.17;;;17.10;98.30;;;;;;5144842;23;20502;-80
2021/08/15 02:27:00;;;;;;;13.20;6.20;;;17.10;98.30;;;;;;5154119;23;20417;-81
2021/08/15 02:29:02;;;;;;;12.43;6.47;;;17.10;98.30;;;;;;5145197;23;20553;-80
2021/08/15 02:31:05;;;;;;;11.07;6.20;;;17.10;98.30;;;;;;5152256;23;20746;-81
2021/08/15 02:33:08;;;;;;;10.33;6.27;;;17.20;98.30;;;;;;5145327;23;20495;-80
2021/08/15 02:35:15;;;;;;;8.90;6.10;;;17.10;98.30;;;;;;5143834;23;20433;-81
2021/08/15 02:37:18;;;;;;;11.83;6.47;;;17.10;98.30;;;;;;5145111;23;20882;-81
2021/08/15 03:53:50;;;;;;;13.90;8.03;;;16.30;98.30;;;;;;5135640;22;20463;-78
2021/08/15 03:55:53;;;;;;;11.80;8.17;;;16.20;98.30;;;;;;5179086;23;20511;-79
2021/08/15 03:57:56;;;;;;;13.80;7.43;;;16.20;98.30;;;;;;5178417;23;20428;-81
2021/08/15 03:59:59;;;;;;;9.77;7.30;;;16.20;98.30;;;;;;5170704;23;20535;-81
2021/08/15 04:02:02;;;;;;;9.67;7.00;;;16.30;98.30;;;;;;5168937;23;21124;-82
2021/08/15 04:04:05;;;;;;;11.10;7.43;;;16.30;98.30;;;;;;5168646;22;20454;-82
2021/08/15 04:06:09;;;;;;;11.43;8.17;;;16.30;98.30;;;;;;5168629;23;20436;-82
2021/08/15 04:08:12;;;;;;;9.07;7.20;;;16.30;98.30;;;;;;5169200;23;20485;-82
2021/08/15 04:10:16;;;;;;;11.37;8.43;;;16.30;98.30;;;;;;5168846;23;20908;-82
2021/08/15 04:12:19;;;;;;;8.90;8.00;;;16.30;98.30;;;;;;5169300;23;20456;-81
2021/08/15 04:14:22;;;;;;;11.17;7.47;;;16.40;98.30;;;;;;5168988;22;20479;-81
2021/08/15 04:16:25;;;;;;;10.13;7.67;;;16.40;98.30;;;;;;5168158;23;20424;-82
2021/08/15 04:18:28;;;;;;;10.53;7.47;;;16.40;98.30;;;;;;5177171;23;20503;-81
2021/08/15 04:20:31;;;;;;;9.50;8.10;;;16.40;98.30;;;;;;5177616;23;20420;-81
2021/08/15 04:22:34;;;;;;;10.97;7.33;;;16.50;98.30;;;;;;5168809;23;20428;-81
2021/08/15 04:24:37;;;;;;;9.77;7.60;;;16.50;98.30;;;;;;5176214;22;20447;-81
2021/08/15 04:26:44;;;;;;;14.53;9.20;;;16.40;98.30;;;;;;5170007;23;20740;-81
2021/08/15 04:28:47;;;;;;;13.20;7.03;;;16.40;98.30;;;;;;5178763;23;20443;-80
2021/08/15 04:30:49;;;;;;;10.67;7.93;;;16.40;98.30;;;;;;5171313;23;20428;-80
2021/08/15 04:32:52;;;;;;;11.60;7.37;;;16.50;98.30;;;;;;5171508;23;20483;-80
2021/08/15 04:34:55;;;;;;;12.00;8.23;;;16.50;98.30;;;;;;5171189;22;20512;-79
2021/08/15 04:36:58;;;;;;;11.33;8.10;;;16.50;98.30;;;;;;5171255;23;20436;-80
2021/08/15 04:39:01;;;;;;;8.30;7.30;;;16.50;98.30;;;;;;5170224;23;20447;-80
2021/08/15 04:41:04;;;;;;;10.60;8.07;;;16.50;98.30;;;;;;5171889;23;20428;-80
2021/08/15 04:43:09;;;;;;;11.30;8.00;;;16.50;98.30;;;;;;5170566;22;20469;-80
2021/08/15 04:45:12;;;;;;;9.77;7.30;;;16.60;98.30;;;;;;5168947;23;20428;-80
2021/08/15 04:47:15;;;;;;;12.00;8.23;;;16.60;98.30;;;;;;5170138;23;20816;-79
2021/08/15 04:49:18;;;;;;;8.33;7.40;;;16.60;98.30;;;;;;5169736;23;20909;-80
2021/08/15 04:51:20;;;;;;;11.53;8.30;;;16.60;98.30;;;;;;5169369;23;20961;-81
2021/08/15 04:53:30;;;;;;;12.40;8.70;;;16.60;98.30;;;;;;5181976;22;20446;-80
2021/08/15 04:55:33;;;;;;;8.67;7.43;;;16.60;98.30;;;;;;5180140;23;20412;-81
2021/08/15 04:57:37;;;;;;;9.03;7.87;;;16.60;98.30;;;;;;5172027;23;20463;-80
2021/08/15 04:59:41;;;;;;;9.23;7.73;;;16.60;98.30;;;;;;5171466;23;20822;-79
2021/08/15 05:01:44;;;;;;;10.37;7.30;;;16.50;98.30;;;;;;5170987;23;20432;-81
2021/08/15 05:03:49;;;;;;;8.77;7.13;;;16.50;98.30;;;;;;5171171;22;20526;-81
2021/08/15 05:05:52;;;;;;;10.57;7.97;;;16.40;98.30;;;;;;5178608;23;20427;-81
2021/08/15 05:07:55;;;;;;;8.37;6.60;;;16.40;98.30;;;;;;5178441;23;20731;-81
2021/08/15 05:09:59;;;;;;;10.93;7.30;;;16.40;98.30;;;;;;5170896;23;20760;-79
2021/08/15 05:12:01;;;;;;;9.47;7.50;;;16.40;98.30;;;;;;5170612;23;20435;-80
2021/08/15 05:14:06;;;;;;;6.97;6.20;;;16.40;98.30;;;;;;5169803;22;20993;-81
2021/08/15 05:16:10;;;;;;;8.33;6.43;;;16.40;98.30;;;;;;5171637;23;21029;-81
2021/08/15 05:18:14;;;;;;;7.23;5.60;;;16.50;98.30;;;;;;5170225;23;20461;-80
2021/08/15 05:20:17;;;;;;;6.40;5.80;;;16.50;98.30;;;;;;5179412;23;20466;-80
2021/08/15 05:22:20;;;;;;;9.40;6.30;;;16.50;98.30;;;;;;5171254;23;20430;-81
2021/08/15 05:24:23;;;;;;;6.80;6.10;;;16.50;98.30;;;;;;5179785;22;20944;-81
2021/08/15 05:26:26;;;;;;;8.23;6.43;;;16.40;98.30;;;;;;5170975;23;20437;-81
2021/08/15 05:28:29;;;;;;;6.60;5.90;;;16.40;98.30;;;;;;5180450;23;20449;-80
2021/08/15 05:30:32;;;;;;;8.00;5.80;;;16.40;98.30;;;;;;5171313;23;20427;-81
2021/08/15 05:32:43;;;;;;;8.13;7.33;;;16.40;98.30;;;;;;5180027;23;20495;-81
2021/08/15 05:34:48;;;;;;;7.20;5.80;;;16.40;98.30;;;;;;5171661;22;20527;-81
2021/08/15 05:36:51;;;;;;;6.30;5.40;;;16.40;98.30;;;;;;5171836;23;20412;-80
2021/08/15 05:38:59;;;;;;;5.20;4.63;;;16.40;98.30;;;;;;5170923;23;20441;-80
2021/08/15 05:41:04;;;;;;;5.87;4.47;;;16.40;98.30;;;;;;5178548;23;20435;-79
2021/08/15 05:43:07;;;;;;;8.80;5.23;;;16.40;98.30;;;;;;5178109;22;20428;-82
2021/08/15 05:45:11;;;;;;;6.83;5.03;;;16.50;98.30;;;;;;5170457;23;20432;-80
2021/08/15 05:47:14;;;;;;;5.90;5.30;;;16.60;98.30;;;;;;5179014;23;20420;-80
2021/08/15 05:49:18;;;;;;;5.70;5.10;;;16.60;98.30;;;;;;5169845;23;20791;-80
2021/08/15 05:51:21;;;;;;;5.80;5.20;;;16.70;98.30;;;;;;5178884;23;20503;-81
2021/08/15 05:53:24;;;;;;;4.97;4.47;;;16.70;98.30;;;;;;5179227;22;21032;-81
2021/08/15 05:55:27;;;;;;;8.47;4.70;;;16.70;98.30;;;;;;5170817;23;20420;-81
2021/08/15 05:57:29;;;;;;;5.47;4.70;;;16.70;98.30;;;;;;5175390;23;20422;-81
2021/08/15 05:59:35;;;;;;;4.47;4.07;;;16.70;98.30;;;;;;5171098;23;20523;-80
2021/08/15 06:01:41;;;;;;;5.90;4.30;;;16.60;98.30;;;;;;5171667;23;20414;-80
2021/08/15 06:03:44;;;;;;;5.20;4.43;;;16.60;98.30;;;;;;5179300;22;20530;-81
2021/08/15 06:05:48;;;;;;;6.80;4.83;;;16.70;98.30;;;;;;5170776;23;20520;-81
2021/08/15 06:07:51;;;;;;;6.23;4.67;;;16.70;98.30;;;;;;5178298;23;20491;-80
2021/08/15 06:09:54;;;;;;;5.67;4.60;;;16.80;98.30;;;;;;5170526;23;20428;-81
2021/08/15 06:12:02;;;;;;;7.90;6.33;;;16.80;98.30;;;;;;5178624;23;20502;-81
2021/08/15 06:14:05;;;;;;;7.10;4.57;;;16.80;98.30;;;;;;5170189;22;20544;-81
2021/08/15 06:16:08;;;;;;;5.83;4.97;;;16.80;98.30;;;;;;5170888;23;20761;-81
2021/08/15 06:18:13;;;;;;;7.23;5.70;;;16.80;98.30;;;;;;5170187;23;20460;-81
2021/08/15 06:20:16;;;;;;;7.77;6.40;;;16.80;98.30;;;;;;5170685;23;20498;-81
2021/08/15 06:22:20;;;;;;;6.07;5.10;;;16.90;98.30;;;;;;5178516;23;20438;-80
2021/08/15 06:24:25;;;;;;;6.00;5.40;;;16.90;98.30;;;;;;5170125;22;20778;-81
2021/08/15 06:26:29;;;;;;;9.53;5.57;;;16.90;98.30;;;;;;5170728;23;20905;-81
2021/08/15 06:28:31;;;;;;;7.33;5.40;;;16.80;98.30;;;;;;5170978;23;20439;-81
2021/08/15 06:30:54;;;;;;;7.27;5.50;;;16.90;98.30;;;;;;5170161;23;20427;-81
2021/08/15 06:32:57;;;;;;;6.50;5.53;;;17.00;98.30;;;;;;5171489;23;20450;-80
2021/08/15 06:35:00;;;;;;;5.70;5.17;;;17.00;98.30;;;;;;5170833;23;20482;-81
2021/08/15 06:37:06;;;;;;;5.70;5.00;;;17.00;98.30;;;;;;5177957;23;20447;-81
2021/08/15 06:39:11;;;;;;;6.03;5.10;;;17.10;98.30;;;;;;5170076;23;20447;-81
2021/08/15 06:41:15;;;;;;;5.40;4.90;;;17.00;98.30;;;;;;5170129;23;20795;-79
2021/08/15 06:43:18;;;;;;;5.63;5.03;;;17.00;98.30;;;;;;5170880;22;20428;-81
2021/08/15 06:45:23;;;;;;;7.97;5.37;;;17.00;98.30;;;;;;5170475;23;20432;-81
2021/08/15 06:47:26;;;;;;;6.43;5.33;;;16.80;98.30;;;;;;5179412;23;20419;-81
2021/08/15 06:49:29;;;;;;;6.20;5.10;;;16.80;98.30;;;;;;5177211;23;20459;-80
2021/08/15 06:51:32;;;;;;;7.13;5.20;;;16.80;98.30;;;;;;5169722;23;20492;-81
2021/08/15 06:53:36;;;;;;;9.03;5.63;;;16.80;98.30;;;;;;5175862;22;21048;-81
2021/08/15 06:55:40;;;;;;;7.70;6.00;;;16.80;98.30;;;;;;5169724;23;20416;-80
2021/08/15 06:57:43;;;;;;;6.87;4.83;;;16.80;98.30;;;;;;5168442;23;20792;-81
2021/08/15 06:59:46;;;;;;;10.83;5.07;;;16.90;98.30;;;;;;5168348;23;20430;-81
2021/08/15 07:01:49;;;;;;;8.33;5.70;;;16.90;98.30;;;;;;5172883;23;20438;-80
2021/08/15 07:03:52;;;;;;;9.70;6.23;;;16.90;98.30;;;;;;5171582;22;20506;-81
2021/08/15 07:05:55;;;;;;;7.83;5.50;;;17.00;98.30;;;;;;5172003;23;20432;-81
2021/08/15 07:07:58;;;;;;;5.87;4.30;;;17.00;98.30;;;;;;5179318;23;20452;-80
2021/08/15 07:10:04;;;;;;;4.93;4.40;;;16.90;98.30;;;;;;5179415;23;20443;-81
2021/08/15 07:12:09;;;;;;;7.50;4.70;;;16.90;98.30;;;;;;5179368;23;20451;-81
2021/08/15 07:14:12;;;;;;;5.30;4.20;;;16.80;98.30;;;;;;5169997;22;20475;-81
2021/08/15 07:16:15;;;;;;;8.13;4.20;;;16.70;98.30;;;;;;5169792;23;20492;-80
2021/08/15 07:18:18;;;;;;;21.20;16.70;;;16.70;98.30;;;;;;5170148;23;20448;-81
2021/08/15 07:20:21;;;;;;;6.27;5.30;;;16.80;98.30;;;;;;5179241;23;20424;-81
2021/08/15 07:22:23;;;;;;;8.20;5.53;;;16.90;98.30;;;;;;5179864;23;20471;-80
2021/08/15 07:24:30;;;;;;;5.47;4.93;;;16.90;98.30;;;;;;5171114;22;20769;-81
2021/08/15 07:26:34;;;;;;;4.83;4.30;;;16.90;98.30;;;;;;5178908;23;20429;-81
2021/08/15 07:28:39;;;;;;;5.97;4.90;;;16.80;98.30;;;;;;5171262;23;20430;-82
2021/08/15 07:30:45;;;;;;;14.33;11.77;;;16.70;98.30;;;;;;5171258;23;20426;-80
2021/08/15 07:32:53;;;;;;;11.63;9.03;;;16.80;98.30;;;;;;5171598;23;20404;-81
2021/08/15 07:34:56;;;;;;;10.50;7.73;;;17.10;98.30;;;;;;5178951;22;20442;-80
2021/08/15 07:37:05;;;;;;;9.30;6.63;;;17.30;98.30;;;;;;5170817;23;20423;-81
2021/08/15 07:39:08;;;;;;;6.37;5.70;;;17.40;98.30;;;;;;5179732;23;20419;-81
2021/08/15 07:41:11;;;;;;;9.87;5.90;;;17.60;98.30;;;;;;5171051;23;20448;-82
2021/08/15 07:43:14;;;;;;;6.37;5.47;;;17.70;98.30;;;;;;5171643;22;20431;-82
2021/08/15 07:45:19;;;;;;;9.03;5.97;;;17.80;98.30;;;;;;5171091;23;20892;-82
2021/08/15 07:47:25;;;;;;;6.70;5.30;;;17.90;98.30;;;;;;5170430;23;20416;-81
2021/08/15 07:49:28;;;;;;;5.80;4.63;;;18.00;98.30;;;;;;5171068;23;20455;-82
2021/08/15 07:51:34;;;;;;;6.50;5.03;;;18.00;98.30;;;;;;5171026;23;20412;-82
2021/08/15 07:53:37;;;;;;;5.47;4.40;;;18.10;98.30;;;;;;5178981;22;20447;-81
2021/08/15 07:55:40;;;;;;;7.10;5.37;;;18.10;98.30;;;;;;5170034;23;20415;-81
2021/08/15 07:57:44;;;;;;;8.20;4.70;;;18.20;98.30;;;;;;5180401;23;20420;-81
2021/08/15 07:59:46;;;;;;;5.23;4.33;;;18.20;98.30;;;;;;5181061;23;20434;-80
2021/08/15 08:01:51;;;;;;;5.37;4.20;;;18.20;98.30;;;;;;5171219;23;20462;-79
2021/08/15 08:03:54;;;;;;;5.93;4.73;;;18.00;98.30;;;;;;5170203;22;20458;-82
2021/08/15 08:05:58;;;;;;;6.10;4.63;;;17.80;98.30;;;;;;5179095;23;20590;-81
2021/08/15 08:08:01;;;;;;;6.97;5.33;;;17.80;98.30;;;;;;5174090;23;20451;-81
2021/08/15 08:10:04;;;;;;;7.20;5.53;;;17.70;98.30;;;;;;5172889;23;20514;-81
2021/08/15 08:12:08;;;;;;;6.93;5.47;;;17.70;98.30;;;;;;5181937;23;20424;-81
2021/08/15 08:14:11;;;;;;;8.03;6.30;;;17.80;98.30;;;;;;5170464;22;20474;-81
2021/08/15 08:16:14;;;;;;;6.57;5.30;;;17.80;98.30;;;;;;5176542;23;20742;-80
2021/08/15 08:18:18;;;;;;;7.93;4.30;;;17.90;98.30;;;;;;5167112;23;20510;-81
2021/08/15 08:20:21;;;;;;;5.40;4.90;;;17.90;98.30;;;;;;5167246;23;20510;-81
2021/08/15 08:22:24;;;;;;;6.30;5.70;;;17.90;98.30;;;;;;5166466;23;20537;-77
2021/08/15 08:24:29;;;;;;;6.10;4.57;;;17.90;98.30;;;;;;5166830;22;20447;-78
2021/08/15 08:26:32;;;;;;;6.13;4.93;;;17.90;98.30;;;;;;5167468;23;20897;-78
2021/08/15 08:28:34;;;;;;;6.90;5.00;;;17.90;98.30;;;;;;5167252;23;20971;-78
2021/08/15 08:30:38;;;;;;;6.93;5.30;;;17.80;98.30;;;;;;5169311;23;20428;-78
2021/08/15 08:32:40;;;;;;;8.73;5.83;;;17.80;98.30;;;;;;5169629;23;20451;-78
2021/08/15 08:34:45;;;;;;;6.27;5.67;;;17.80;98.30;;;;;;5169326;22;20478;-78
2021/08/15 08:36:47;;;;;;;6.70;5.37;;;18.00;98.30;;;;;;5170345;23;20439;-79
2021/08/15 08:38:50;;;;;;;6.00;5.10;;;17.90;98.30;;;;;;5173868;23;20454;-77
2021/08/15 08:40:54;;;;;;;7.20;6.10;;;18.00;98.30;;;;;;5179042;23;20495;-77
2021/08/15 08:42:58;;;;;;;6.33;5.53;;;17.90;98.30;;;;;;5182913;23;20523;-78
2021/08/15 08:45:02;;;;;;;5.80;4.90;;;17.90;98.30;;;;;;5168561;23;20921;-77
2021/08/15 08:47:08;;;;;;;8.20;5.20;;;17.80;98.30;;;;;;5168347;23;20493;-80
2021/08/15 08:49:15;;;;;;;4.93;3.90;;;17.90;98.30;;;;;;5169713;23;20446;-78
2021/08/15 08:51:21;;;;;;;5.20;4.30;;;17.80;98.30;;;;;;5170136;23;20470;-78
2021/08/15 08:53:24;;;;;;;5.80;4.70;;;17.80;98.30;;;;;;5170477;22;20513;-78
2021/08/15 08:55:27;;;;;;;7.30;4.67;;;17.90;98.30;;;;;;5170443;23;20519;-76
2021/08/15 08:57:30;;;;;;;4.80;4.00;;;17.80;98.30;;;;;;5170010;23;20427;-78
2021/08/15 08:59:37;;;;;;;5.50;4.30;;;17.80;98.30;;;;;;5178069;23;20427;-78
2021/08/15 09:01:42;;;;;;;4.63;4.20;;;17.80;98.30;;;;;;5170224;23;21249;-78
2021/08/15 09:03:45;;;;;;;5.60;5.00;;;17.80;98.30;;;;;;5169233;22;20452;-78
2021/08/15 09:05:52;;;;;;;7.33;4.77;;;18.00;98.30;;;;;;5178283;23;20474;-78
2021/08/15 09:07:57;;;;;;;5.43;4.80;;;18.20;98.30;;;;;;5169952;23;20434;-78
2021/08/15 09:10:01;;;;;;;6.33;4.80;;;18.20;98.30;;;;;;5178916;23;20804;-78
2021/08/15 09:12:06;;;;;;;5.03;4.40;;;18.40;98.30;;;;;;5170529;23;20944;-78
2021/08/15 09:14:12;;;;;;;5.00;4.50;;;18.60;98.30;;;;;;5169693;22;20482;-78
2021/08/15 09:16:15;;;;;;;6.70;4.60;;;18.60;98.30;;;;;;5177505;23;20411;-78
2021/08/15 09:18:28;;;;;;;8.63;5.37;;;18.70;98.30;;;;;;5169713;23;20424;-78
2021/08/15 09:20:40;;;;;;;4.87;4.37;;;18.70;98.30;;;;;;5169823;23;20434;-78
2021/08/15 09:22:43;;;;;;;5.60;5.00;;;18.70;98.30;;;;;;5170301;23;20423;-78
2021/08/15 09:24:51;;;;;;;5.27;4.60;;;18.80;98.30;;;;;;5168970;22;20454;-78
2021/08/15 09:26:58;;;;;;;5.27;4.33;;;19.00;98.30;;;;;;5169526;23;20408;-77
2021/08/15 09:29:01;;;;;;;6.20;4.67;;;18.90;98.30;;;;;;5169764;23;20431;-78
2021/08/15 09:31:20;;;;;;;6.33;4.77;;;18.90;98.30;;;;;;5169628;23;20423;-77
2021/08/15 09:33:23;;;;;;;4.97;4.47;;;19.00;98.30;;;;;;5169861;22;20455;-78
2021/08/15 09:35:29;;;;;;;5.07;4.57;;;19.00;98.30;;;;;;5168610;23;20477;-78
2021/08/15 09:37:34;;;;;;;4.90;4.30;;;18.90;98.30;;;;;;5169607;23;20422;-78
2021/08/15 09:39:37;;;;;;;5.23;4.73;;;18.70;98.30;;;;;;5176386;23;20424;-77
2021/08/15 09:41:50;;;;;;;9.60;5.27;;;18.60;98.30;;;;;;5167769;23;20485;-77
2021/08/15 09:44:20;;;;;;;5.93;5.33;;;18.50;98.30;;;;;;5167323;22;20451;-77
2021/08/15 09:46:22;;;;;;;6.23;5.63;;;18.40;98.30;;;;;;5169450;23;20428;-78
2021/08/15 09:48:32;;;;;;;11.67;8.67;;;18.40;98.30;;;;;;5168062;23;20431;-78
2021/08/15 09:50:38;;;;;;;9.83;8.50;;;18.30;98.30;;;;;;5166216;23;20420;-78
2021/08/15 09:52:41;;;;;;;16.30;11.47;;;18.30;98.30;;;;;;5164035;23;20781;-78
2021/08/15 14:06:00;;;;;;;11.60;9.67;;;24.90;98.30;;;;;;4843997;24;20438;-84
2021/08/15 20:10:12;;;;;;;11.00;5.50;;;21.70;98.30;;;;;;4866265;24;20436;-83
2021/08/15 20:12:28;;;;;;;7.10;5.07;;;21.70;98.30;;;;;;4971183;23;20436;-84
2021/08/15 20:14:54;;;;;;;7.50;4.80;;;21.70;98.30;;;;;;4971731;23;20444;-82
2021/08/15 20:17:41;;;;;;;6.00;4.67;;;21.70;98.30;;;;;;4979998;23;20587;-83
